createdAt,value
2018-08-11T00:01:33.818Z,21.48
2018-08-11T00:04:02.386Z,20.32
2018-08-11T00:06:30.898Z,20.10
2018-08-11T00:08:59.334Z,20.15
2018-08-11T00:11:27.843Z,20.23
2018-08-11T00:13:56.270Z,19.92
2018-08-11T00:16:24.794Z,19.52
2018-08-11T00:18:53.521Z,20.10
2018-08-11T00:21:21.934Z,20.75
2018-08-11T00:23:50.380Z,20.40
2018-08-11T00:26:18.986Z,20.68
2018-08-11T00:28:47.469Z,19.37
2018-08-11T00:31:16.151Z,20.45
2018-08-11T00:33:44.763Z,20.12
2018-08-11T00:36:13.307Z,20.30
2018-08-11T00:38:41.830Z,20.37
2018-08-11T00:41:10.423Z,20.17
2018-08-11T00:43:38.986Z,20.32
2018-08-11T00:46:08.103Z,19.98
2018-08-11T00:48:36.602Z,20.32
2018-08-11T00:51:05.269Z,19.98
2018-08-11T00:53:33.671Z,19.67
2018-08-11T00:56:02.196Z,19.85
2018-08-11T00:58:30.752Z,19.65
2018-08-11T01:00:59.140Z,19.95
2018-08-11T01:03:27.601Z,20.15
2018-08-11T01:05:56.033Z,19.25
2018-08-11T01:08:24.614Z,19.82
2018-08-11T01:10:53.052Z,20.27
2018-08-11T01:13:21.522Z,20.50
2018-08-11T01:15:49.858Z,20.40
2018-08-11T01:18:18.343Z,19.57
2018-08-11T01:20:46.931Z,19.55
2018-08-11T01:23:15.515Z,19.77
2018-08-11T01:25:43.964Z,19.87
2018-08-11T01:28:12.410Z,20.23
2018-08-11T01:30:40.850Z,19.80
2018-08-11T01:33:09.312Z,19.50
2018-08-11T01:35:37.702Z,20.00
2018-08-11T01:38:06.799Z,19.12
2018-08-11T01:40:35.258Z,19.65
2018-08-11T01:43:03.802Z,19.67
2018-08-11T01:45:32.242Z,21.75
2018-08-11T01:48:00.723Z,19.25
2018-08-11T01:50:29.115Z,20.90
2018-08-11T01:52:57.590Z,18.80
2018-08-11T01:55:26.000Z,19.42
2018-08-11T01:57:55.358Z,19.23
2018-08-11T02:00:23.934Z,20.02
2018-08-11T02:02:52.312Z,18.80
2018-08-11T02:05:20.752Z,19.42
2018-08-11T02:07:49.270Z,19.60
2018-08-11T02:10:19.708Z,21.15
2018-08-11T02:12:48.632Z,19.35
2018-08-11T02:15:17.346Z,20.48
2018-08-11T02:17:46.014Z,20.32
2018-08-11T02:20:19.064Z,20.40
2018-08-11T02:22:48.360Z,19.60
2018-08-11T02:25:16.920Z,19.30
2018-08-11T02:27:45.474Z,18.30
2018-08-11T02:30:17.447Z,20.27
2018-08-11T02:32:45.834Z,19.45
2018-08-11T02:35:14.840Z,20.00
2018-08-11T02:37:43.665Z,21.02
2018-08-11T02:40:14.285Z,19.75
2018-08-11T02:42:42.724Z,20.60
2018-08-11T02:45:13.057Z,19.48
2018-08-11T02:47:41.564Z,20.70
2018-08-11T02:50:11.413Z,20.77
2018-08-11T02:52:40.718Z,20.45
2018-08-11T02:55:09.356Z,20.37
2018-08-11T02:57:38.346Z,20.75
2018-08-11T03:00:08.535Z,19.10
2018-08-11T03:02:37.278Z,20.55
2018-08-11T03:05:06.428Z,19.82
2018-08-11T03:07:35.078Z,20.37
2018-08-11T03:10:03.600Z,21.50
2018-08-11T03:12:32.043Z,20.27
2018-08-11T03:15:00.585Z,20.40
2018-08-11T03:17:29.002Z,21.05
2018-08-11T03:19:58.419Z,20.97
2018-08-11T03:22:26.948Z,21.17
2018-08-11T03:24:55.326Z,19.75
2018-08-11T03:27:23.816Z,20.25
2018-08-11T03:29:52.340Z,18.50
2018-08-11T03:32:20.747Z,19.45
2018-08-11T03:34:49.248Z,19.57
2018-08-11T03:37:18.798Z,19.98
2018-08-11T03:39:47.759Z,19.40
2018-08-11T03:42:16.233Z,18.57
2018-08-11T03:44:44.730Z,18.23
2018-08-11T03:47:13.204Z,19.15
2018-08-11T03:49:41.651Z,19.52
2018-08-11T03:52:10.130Z,18.62
2018-08-11T03:54:38.682Z,19.17
2018-08-11T03:57:07.122Z,19.23
2018-08-11T03:59:35.614Z,19.82
2018-08-11T04:02:04.243Z,19.32
2018-08-11T04:04:32.787Z,17.92
2018-08-11T04:07:01.389Z,19.82
2018-08-11T04:09:29.856Z,19.15
2018-08-11T04:11:58.415Z,18.82
2018-08-11T04:14:26.831Z,20.30
2018-08-11T04:16:55.198Z,18.87
2018-08-11T04:19:23.584Z,19.17
2018-08-11T04:21:52.065Z,19.30
2018-08-11T04:24:20.423Z,18.85
2018-08-11T04:26:48.835Z,19.27
2018-08-11T04:29:17.186Z,18.60
2018-08-11T04:31:45.765Z,18.98
2018-08-11T04:34:15.026Z,18.57
2018-08-11T04:36:43.433Z,18.35
2018-08-11T04:39:11.827Z,19.40
2018-08-11T04:41:41.024Z,19.15
2018-08-11T04:44:09.410Z,19.07
2018-08-11T04:46:37.850Z,18.85
2018-08-11T04:49:06.271Z,18.90
2018-08-11T04:51:34.838Z,18.95
2018-08-11T04:54:03.355Z,18.62
2018-08-11T04:56:32.306Z,18.82
2018-08-11T04:59:00.826Z,19.73
2018-08-11T05:01:29.309Z,18.90
2018-08-11T05:03:57.782Z,19.02
2018-08-11T05:06:26.216Z,19.23
2018-08-11T05:08:54.722Z,19.12
2018-08-11T05:11:23.098Z,20.02
2018-08-11T05:13:51.598Z,17.48
2018-08-11T05:16:20.078Z,18.30
2018-08-11T05:18:48.574Z,19.35
2018-08-11T05:21:16.910Z,18.92
2018-08-11T05:23:45.438Z,18.77
2018-08-11T05:26:13.973Z,19.00
2018-08-11T05:28:42.492Z,19.05
2018-08-11T05:31:11.510Z,19.67
2018-08-11T05:33:39.958Z,18.95
2018-08-11T05:36:08.483Z,18.95
2018-08-11T05:38:37.769Z,19.65
2018-08-11T05:41:06.450Z,19.32
2018-08-11T05:43:35.051Z,18.40
2018-08-11T05:46:03.495Z,19.92
2018-08-11T05:48:31.911Z,19.37
2018-08-11T05:51:00.354Z,20.32
2018-08-11T05:53:28.906Z,21.20
2018-08-11T05:55:57.320Z,22.02
2018-08-11T05:58:26.165Z,20.85
2018-08-11T06:00:54.642Z,20.70
2018-08-11T06:03:23.079Z,22.37
2018-08-11T06:05:51.539Z,21.95
2018-08-11T06:08:20.147Z,23.05
2018-08-11T06:10:48.680Z,22.13
2018-08-11T06:13:17.287Z,22.40
2018-08-11T06:15:45.711Z,22.52
2018-08-11T06:18:14.255Z,22.37
2018-08-11T06:20:42.752Z,23.18
2018-08-11T06:23:11.224Z,21.85
2018-08-11T06:25:39.602Z,22.10
2018-08-11T06:28:08.226Z,23.95
2018-08-11T06:30:36.766Z,23.22
2018-08-11T06:33:06.505Z,26.20
2018-08-11T06:35:35.512Z,24.90
2018-08-11T06:38:04.178Z,23.57
2018-08-11T06:40:32.630Z,23.30
2018-08-11T06:43:01.031Z,23.15
2018-08-11T06:45:29.527Z,23.10
2018-08-11T06:47:58.121Z,23.05
2018-08-11T06:50:26.564Z,25.52
2018-08-11T06:52:55.064Z,23.10
2018-08-11T06:55:23.675Z,24.05
2018-08-11T06:57:52.173Z,24.25
2018-08-11T07:00:20.577Z,27.50
2018-08-11T07:02:48.990Z,26.45
2018-08-11T07:05:17.581Z,24.95
2018-08-11T07:07:46.170Z,24.98
2018-08-11T07:10:14.718Z,23.87
2018-08-11T07:12:43.292Z,25.60
2018-08-11T07:15:11.917Z,25.32
2018-08-11T07:17:40.307Z,25.85
2018-08-11T07:20:08.782Z,25.82
2018-08-11T07:22:37.213Z,27.45
2018-08-11T07:25:05.971Z,26.27
2018-08-11T07:27:34.406Z,27.15
2018-08-11T07:30:02.915Z,26.93
2018-08-11T07:32:31.259Z,27.10
2018-08-11T07:34:59.685Z,28.57
2018-08-11T07:37:28.081Z,28.32
2018-08-11T07:39:56.504Z,31.05
2018-08-11T07:42:25.358Z,27.00
2018-08-11T07:44:53.860Z,27.42
2018-08-11T07:47:22.259Z,28.70
2018-08-11T07:49:50.879Z,26.07
2018-08-11T07:52:19.663Z,26.62
2018-08-11T07:54:48.109Z,28.07
2018-08-11T07:57:16.453Z,25.97
2018-08-11T07:59:44.894Z,24.23
2018-08-11T08:02:17.912Z,22.82
2018-08-11T08:04:46.451Z,21.82
2018-08-11T08:07:14.938Z,23.65
2018-08-11T08:09:43.330Z,24.23
2018-08-11T08:12:11.890Z,23.35
2018-08-11T08:14:40.321Z,24.05
2018-08-11T08:17:08.704Z,24.25
2018-08-11T08:19:37.340Z,22.73
2018-08-11T08:22:05.805Z,22.87
2018-08-11T08:24:34.265Z,23.95
2018-08-11T08:27:02.727Z,23.18
2018-08-11T08:29:31.085Z,24.00
2018-08-11T08:31:59.530Z,22.70
2018-08-11T08:34:28.097Z,23.87
2018-08-11T08:36:56.488Z,22.80
2018-08-11T08:39:25.091Z,23.18
2018-08-11T08:41:53.555Z,22.45
2018-08-11T08:44:22.039Z,21.90
2018-08-11T08:46:50.466Z,22.00
2018-08-11T08:49:18.923Z,22.48
2018-08-11T08:51:47.302Z,23.80
2018-08-11T08:54:15.671Z,21.85
2018-08-11T08:56:44.071Z,23.20
2018-08-11T08:59:12.600Z,22.27
2018-08-11T09:01:41.000Z,21.87
2018-08-11T09:04:09.392Z,22.67
2018-08-11T09:06:37.843Z,22.17
2018-08-11T09:09:08.646Z,21.73
2018-08-11T09:11:37.968Z,23.20
2018-08-11T09:14:06.437Z,21.37
2018-08-11T09:16:34.963Z,22.85
2018-08-11T09:19:03.554Z,22.07
2018-08-11T09:21:32.158Z,22.93
2018-08-11T09:24:01.762Z,21.35
2018-08-11T09:26:30.299Z,22.90
2018-08-11T09:28:58.799Z,23.52
2018-08-11T09:31:27.431Z,22.25
2018-08-11T09:33:55.838Z,20.40
2018-08-11T09:36:24.298Z,23.57
2018-08-11T09:38:52.815Z,22.87
2018-08-11T09:41:21.207Z,23.12
2018-08-11T09:43:49.900Z,23.00
2018-08-11T09:46:18.533Z,22.42
2018-08-11T09:48:47.048Z,22.75
2018-08-11T09:51:15.555Z,22.52
2018-08-11T09:53:44.036Z,21.57
2018-08-11T09:56:12.522Z,21.20
2018-08-11T09:58:41.096Z,21.60
2018-08-11T10:01:19.180Z,23.15
2018-08-11T10:03:47.625Z,22.55
2018-08-11T10:06:16.080Z,23.30
2018-08-11T10:08:44.527Z,24.00
2018-08-11T10:11:13.862Z,24.00
2018-08-11T10:13:42.346Z,24.75
2018-08-11T10:16:10.889Z,21.27
2018-08-11T10:18:39.531Z,20.57
2018-08-11T10:21:08.227Z,20.00
2018-08-11T10:23:37.015Z,23.00
2018-08-11T10:26:05.657Z,23.52
2018-08-11T10:28:34.250Z,20.85
2018-08-11T10:31:02.746Z,20.95
2018-08-11T10:33:31.829Z,22.05
2018-08-11T10:36:00.226Z,19.73
2018-08-11T10:38:28.992Z,21.75
2018-08-11T10:40:57.576Z,21.17
2018-08-11T10:43:26.134Z,21.50
2018-08-11T10:45:54.755Z,22.52
2018-08-11T10:48:23.408Z,21.17
2018-08-11T10:50:52.008Z,20.60
2018-08-11T10:53:20.579Z,20.43
2018-08-11T10:55:49.864Z,21.73
2018-08-11T10:58:19.023Z,20.00
2018-08-11T11:00:47.508Z,21.90
2018-08-11T11:03:16.019Z,20.90
2018-08-11T11:05:44.437Z,19.07
2018-08-11T11:08:14.155Z,20.20
2018-08-11T11:10:44.227Z,19.90
2018-08-11T11:13:13.998Z,20.37
2018-08-11T11:15:43.860Z,20.17
2018-08-11T11:18:14.797Z,20.68
2018-08-11T11:20:45.466Z,20.20
2018-08-11T11:23:14.914Z,22.98
2018-08-11T11:25:43.451Z,21.68
2018-08-11T11:28:13.790Z,21.40
2018-08-11T11:30:43.451Z,19.48
2018-08-11T11:33:13.556Z,22.42
2018-08-11T11:35:43.493Z,18.12
2018-08-11T11:38:17.628Z,17.57
2018-08-11T11:40:46.266Z,17.67
2018-08-11T11:43:14.675Z,17.70
2018-08-11T11:45:43.102Z,17.48
2018-08-11T11:48:11.665Z,17.57
2018-08-11T11:50:40.270Z,18.52
2018-08-11T11:53:08.721Z,16.73
2018-08-11T11:55:37.390Z,18.75
2018-08-11T11:58:06.664Z,15.80
2018-08-11T12:00:36.296Z,17.52
2018-08-11T12:03:06.890Z,15.93
2018-08-11T12:05:36.672Z,16.10
2018-08-11T12:08:06.142Z,17.27
2018-08-11T12:10:36.341Z,16.60
2018-08-11T12:13:05.971Z,16.45
2018-08-11T12:15:35.757Z,19.85
2018-08-11T12:18:05.955Z,18.75
2018-08-11T12:20:36.037Z,22.58
2018-08-11T12:23:06.300Z,22.65
2018-08-11T12:25:36.026Z,24.52
2018-08-11T12:28:10.419Z,20.62
2018-08-11T12:30:40.602Z,19.95
2018-08-11T12:33:09.956Z,18.05
2018-08-11T12:35:39.676Z,17.48
2018-08-11T12:38:09.382Z,17.67
2018-08-11T12:40:39.510Z,18.05
2018-08-11T12:43:08.959Z,18.48
2018-08-11T12:45:38.304Z,19.95
2018-08-11T12:48:08.321Z,20.12
2018-08-11T12:50:38.443Z,19.20
2018-08-11T12:53:08.241Z,17.75
2018-08-11T12:55:38.349Z,18.40
2018-08-11T12:58:08.411Z,18.27
2018-08-11T13:00:38.388Z,18.45
2018-08-11T13:03:08.160Z,17.55
2018-08-11T13:05:37.717Z,19.07
2018-08-11T13:08:07.007Z,17.07
2018-08-11T13:10:35.711Z,18.37
2018-08-11T13:13:04.292Z,16.70
2018-08-11T13:15:32.927Z,16.20
2018-08-11T13:18:01.472Z,16.57
2018-08-11T13:20:30.107Z,17.90
2018-08-11T13:22:59.465Z,17.07
2018-08-11T13:25:28.021Z,18.55
2018-08-11T13:27:56.477Z,18.62
2018-08-11T13:30:24.912Z,18.27
2018-08-11T13:32:53.419Z,18.92
2018-08-11T13:35:21.910Z,18.15
2018-08-11T13:37:50.327Z,19.05
2018-08-11T13:40:18.729Z,19.55
2018-08-11T13:42:47.313Z,17.57
2018-08-11T13:45:15.774Z,19.17
2018-08-11T13:47:45.079Z,19.85
2018-08-11T13:50:13.522Z,18.42
2018-08-11T13:52:43.299Z,18.37
2018-08-11T13:55:12.503Z,17.10
2018-08-11T13:57:42.075Z,18.87
2018-08-11T14:00:12.294Z,18.42
2018-08-11T14:02:42.664Z,19.30
2018-08-11T14:05:12.470Z,18.37
2018-08-11T14:07:43.645Z,17.90
2018-08-11T14:10:13.313Z,16.93
2018-08-11T14:12:43.632Z,19.35
2018-08-11T14:15:13.011Z,17.75
2018-08-11T14:17:42.539Z,20.23
2018-08-11T14:20:12.218Z,19.20
2018-08-11T14:22:42.613Z,18.90
2018-08-11T14:25:11.807Z,19.92
2018-08-11T14:27:42.059Z,21.00
2018-08-11T14:30:11.590Z,19.02
2018-08-11T14:32:40.344Z,18.75
2018-08-11T14:35:08.760Z,17.07
2018-08-11T14:37:37.343Z,17.40
2018-08-11T14:40:07.908Z,18.77
2018-08-11T14:42:36.411Z,19.20
2018-08-11T14:45:06.892Z,19.12
2018-08-11T14:47:36.472Z,20.05
2018-08-11T14:50:05.670Z,18.30
2018-08-11T14:52:34.763Z,19.70
2018-08-11T14:55:03.376Z,18.62
2018-08-11T14:57:31.921Z,17.57
2018-08-11T15:00:01.475Z,21.23
2018-08-11T15:02:30.246Z,19.90
2018-08-11T15:05:00.203Z,17.95
2018-08-11T15:07:30.368Z,18.50
2018-08-11T15:09:58.905Z,18.12
2018-08-11T15:12:27.360Z,18.02
2018-08-11T15:14:56.472Z,19.00
2018-08-11T15:17:25.151Z,19.15
2018-08-11T15:19:53.576Z,20.10
2018-08-11T15:22:22.095Z,18.90
2018-08-11T15:24:50.522Z,18.20
2018-08-11T15:27:18.965Z,20.27
2018-08-11T15:29:48.021Z,19.25
2018-08-11T15:32:16.458Z,19.80
2018-08-11T15:34:45.703Z,19.67
2018-08-11T15:37:14.111Z,19.75
2018-08-11T15:39:42.700Z,20.02
2018-08-11T15:42:11.257Z,22.02
2018-08-11T15:44:39.732Z,17.50
2018-08-11T15:47:08.379Z,18.48
2018-08-11T15:49:36.932Z,18.57
2018-08-11T15:52:06.158Z,17.92
2018-08-11T15:54:34.628Z,18.05
2018-08-11T15:57:03.368Z,19.80
2018-08-11T15:59:32.252Z,18.25
2018-08-11T16:02:00.736Z,16.90
2018-08-11T16:04:29.989Z,17.90
2018-08-11T16:06:58.414Z,18.37
2018-08-11T16:09:26.880Z,19.85
2018-08-11T16:11:55.416Z,17.42
2018-08-11T16:14:23.833Z,18.73
2018-08-11T16:16:52.355Z,19.02
2018-08-11T16:19:20.787Z,18.05
2018-08-11T16:21:49.286Z,17.42
2018-08-11T16:24:17.915Z,17.92
2018-08-11T16:26:46.351Z,18.85
2018-08-11T16:29:14.818Z,17.60
2018-08-11T16:31:43.286Z,19.65
2018-08-11T16:34:11.736Z,18.92
2018-08-11T16:36:40.184Z,17.75
2018-08-11T16:39:09.555Z,18.65
2018-08-11T16:41:38.687Z,19.42
2018-08-11T16:44:07.245Z,17.32
2018-08-11T16:46:35.746Z,18.23
2018-08-11T16:49:04.181Z,17.55
2018-08-11T16:51:32.650Z,17.90
2018-08-11T16:54:01.108Z,19.57
2018-08-11T16:56:29.636Z,18.07
2018-08-11T16:58:58.114Z,16.05
2018-08-11T17:01:26.510Z,18.12
2018-08-11T17:03:55.089Z,18.95
2018-08-11T17:06:23.563Z,19.02
2018-08-11T17:08:51.991Z,16.85
2018-08-11T17:11:20.412Z,18.52
2018-08-11T17:13:48.954Z,18.73
2018-08-11T17:16:17.374Z,17.60
2018-08-11T17:18:46.001Z,17.35
2018-08-11T17:21:14.724Z,19.15
2018-08-11T17:23:43.140Z,19.32
2018-08-11T17:26:11.601Z,20.40
2018-08-11T17:28:40.349Z,20.40
2018-08-11T17:31:08.915Z,17.12
2018-08-11T17:33:37.514Z,16.85
2018-08-11T17:36:06.029Z,17.20
2018-08-11T17:38:34.575Z,19.50
2018-08-11T17:41:03.031Z,17.95
2018-08-11T17:43:31.440Z,19.15
2018-08-11T17:45:59.879Z,18.50
2018-08-11T17:48:28.674Z,19.55
2018-08-11T17:50:57.099Z,17.30
2018-08-11T17:53:25.589Z,18.25
2018-08-11T17:55:54.123Z,18.92
2018-08-11T17:58:37.624Z,18.05
2018-08-11T18:01:06.087Z,18.75
2018-08-11T18:03:34.607Z,18.70
2018-08-11T18:06:03.639Z,17.70
2018-08-11T18:08:32.074Z,19.12
2018-08-11T18:11:00.478Z,18.55
2018-08-11T18:13:28.874Z,16.25
2018-08-11T18:15:57.346Z,18.70
2018-08-11T18:18:25.905Z,17.42
2018-08-11T18:20:54.328Z,16.20
2018-08-11T18:23:22.827Z,16.45
2018-08-11T18:25:51.344Z,17.35
2018-08-11T18:28:19.863Z,18.35
2018-08-11T18:30:48.336Z,17.10
2018-08-11T18:33:16.799Z,17.45
2018-08-11T18:35:45.227Z,21.48
2018-08-11T18:38:13.762Z,17.62
2018-08-11T18:40:42.175Z,17.50
2018-08-11T18:43:10.756Z,19.70
2018-08-11T18:45:39.250Z,19.17
2018-08-11T18:48:07.787Z,17.42
2018-08-11T18:50:36.279Z,16.70
2018-08-11T18:53:04.820Z,17.02
2018-08-11T18:55:33.304Z,17.27
2018-08-11T18:58:01.738Z,16.20
2018-08-11T19:00:30.214Z,17.73
2018-08-11T19:02:58.685Z,17.37
2018-08-11T19:05:27.169Z,17.20
2018-08-11T19:07:55.638Z,18.30
2018-08-11T19:10:24.167Z,18.07
2018-08-11T19:12:52.716Z,16.42
2018-08-11T19:15:21.194Z,17.62
2018-08-11T19:17:49.682Z,17.02
2018-08-11T19:20:18.223Z,18.48
2018-08-11T19:22:46.804Z,19.12
2018-08-11T19:25:15.341Z,17.57
2018-08-11T19:27:43.893Z,17.95
2018-08-11T19:30:12.470Z,19.23
2018-08-11T19:32:41.048Z,18.12
2018-08-11T19:35:09.560Z,16.87
2018-08-11T19:37:38.337Z,18.05
2018-08-11T19:40:08.204Z,19.12
2018-08-11T19:42:36.771Z,18.37
2018-08-11T19:45:07.157Z,17.67
2018-08-11T19:47:35.623Z,18.27
2018-08-11T19:50:04.805Z,19.52
2018-08-11T19:52:33.353Z,18.92
2018-08-11T19:55:01.947Z,19.02
2018-08-11T19:57:30.519Z,19.00
2018-08-11T19:59:59.090Z,19.98
2018-08-11T20:02:27.590Z,18.75
2018-08-11T20:04:57.031Z,19.23
2018-08-11T20:07:25.611Z,19.15
2018-08-11T20:09:54.071Z,18.05
2018-08-11T20:12:22.640Z,19.15
2018-08-11T20:14:51.152Z,19.90
2018-08-11T20:17:27.264Z,20.30
2018-08-11T20:19:55.768Z,19.87
2018-08-11T20:22:24.342Z,19.82
2018-08-11T20:24:53.000Z,20.20
2018-08-11T20:27:22.100Z,20.62
2018-08-11T20:29:51.095Z,18.75
2018-08-11T20:32:19.682Z,19.15
2018-08-11T20:34:48.214Z,18.20
2018-08-11T20:37:16.947Z,18.65
2018-08-11T20:39:45.424Z,18.87
2018-08-11T20:42:14.142Z,19.27
2018-08-11T20:44:42.640Z,19.25
2018-08-11T20:47:11.206Z,19.15
2018-08-11T20:49:39.904Z,18.60
2018-08-11T20:52:08.405Z,19.25
2018-08-11T20:54:37.000Z,19.55
2018-08-11T20:57:05.642Z,19.17
2018-08-11T20:59:34.248Z,19.42
2018-08-11T21:02:03.021Z,19.57
2018-08-11T21:04:31.501Z,19.15
2018-08-11T21:06:59.985Z,19.67
2018-08-11T21:09:28.678Z,19.07
2018-08-11T21:11:57.246Z,19.07
2018-08-11T21:14:25.904Z,19.25
2018-08-11T21:16:54.645Z,19.00
2018-08-11T21:19:23.151Z,19.12
2018-08-11T21:21:51.615Z,17.95
2018-08-11T21:24:21.768Z,18.65
2018-08-11T21:26:50.290Z,19.27
2018-08-11T21:29:18.868Z,18.87
2018-08-11T21:31:47.416Z,19.02
2018-08-11T21:34:16.004Z,18.98
2018-08-11T21:36:44.548Z,18.80
2018-08-11T21:39:14.140Z,19.27
2018-08-11T21:41:42.903Z,18.77
2018-08-11T21:44:11.462Z,19.57
2018-08-11T21:46:39.980Z,18.67
2018-08-11T21:49:09.476Z,18.82
2018-08-11T21:51:38.098Z,18.77
2018-08-11T21:54:07.127Z,19.70
2018-08-11T21:56:35.548Z,18.77
2018-08-11T21:59:04.357Z,18.42
2018-08-11T22:01:32.904Z,19.07
2018-08-11T22:04:01.474Z,19.70
2018-08-11T22:06:30.074Z,18.67
2018-08-11T22:08:58.598Z,18.45
2018-08-11T22:11:27.043Z,18.27
2018-08-11T22:13:55.517Z,19.50
2018-08-11T22:16:24.070Z,18.90
2018-08-11T22:18:52.512Z,19.00
2018-08-11T22:21:20.957Z,18.37
2018-08-11T22:23:50.543Z,18.82
2018-08-11T22:26:19.008Z,19.20
2018-08-11T22:28:47.520Z,19.37
2018-08-11T22:31:16.000Z,18.67
2018-08-11T22:33:44.439Z,19.30
2018-08-11T22:36:12.905Z,18.42
2018-08-11T22:38:41.498Z,19.02
2018-08-11T22:41:10.009Z,18.65
2018-08-11T22:43:38.576Z,18.73
2018-08-11T22:59:06.498Z,18.85
2018-08-11T23:01:34.923Z,17.00
2018-08-11T23:04:03.364Z,18.77
2018-08-11T23:06:31.998Z,18.62
2018-08-11T23:09:00.384Z,18.02
2018-08-11T23:11:29.899Z,19.77
2018-08-11T23:13:58.324Z,18.70
2018-08-11T23:16:26.739Z,19.73
2018-08-11T23:18:55.178Z,19.40
2018-08-11T23:21:23.765Z,20.10
2018-08-11T23:23:52.206Z,18.90
2018-08-11T23:26:20.556Z,19.42
2018-08-11T23:28:49.061Z,19.05
2018-08-11T23:31:17.561Z,18.73
2018-08-11T23:33:46.167Z,18.17
2018-08-11T23:36:14.747Z,19.02
2018-08-11T23:38:43.207Z,18.55
2018-08-11T23:41:11.694Z,19.10
2018-08-11T23:43:40.150Z,18.87
2018-08-11T23:46:08.642Z,18.90
2018-08-11T23:48:37.140Z,18.98
2018-08-11T23:51:05.667Z,18.85
2018-08-11T23:53:35.155Z,19.55
2018-08-11T23:56:03.562Z,18.70
2018-08-11T23:58:32.125Z,19.20
